Time;durP1;ratioP1;P1;durP2;ratioP2;P2;SDS_P1;SDS_P2;PMS_P1;PMS_P2;Temp;Humidity;BMP_temperature;BMP_pressure;BME280_temperature;BME280_humidity;BME280_pressure;Samples;Min_cycle;Max_cycle;Signal;HPM_P1;HPM_P2
2022/06/18 00:00:51;;;;;;;3.75;1.40;;;;;;;-141.50;100.00;63355.56;5073370;28;20480;-82
2022/06/18 00:03:19;;;;;;;2.78;1.30;;;;;;;-141.50;100.00;63355.56;5073629;28;20056;-82
2022/06/18 00:05:48;;;;;;;8.48;1.40;;;;;;;-141.50;100.00;63355.56;5075762;28;20049;-82
2022/06/18 00:08:21;;;;;;;5.28;1.27;;;;;;;-141.50;100.00;63355.56;5070690;28;20127;-82
2022/06/18 00:10:53;;;;;;;6.13;1.58;;;;;;;-141.50;100.00;63355.56;5070570;28;20510;-82
2022/06/18 00:13:40;;;;;;;4.10;1.48;;;;;;;-141.50;100.00;63355.56;5071830;28;20129;-82
2022/06/18 00:16:12;;;;;;;2.97;1.30;;;;;;;-141.50;100.00;63355.56;5072835;28;20045;-82
2022/06/18 00:18:47;;;;;;;3.20;1.40;;;;;;;-141.50;100.00;63355.56;5059069;28;20077;-81
2022/06/18 00:21:19;;;;;;;2.03;1.40;;;;;;;-141.50;100.00;63355.56;5074575;28;20080;-83
2022/06/18 00:23:46;;;;;;;4.15;1.50;;;;;;;-141.50;100.00;63355.56;5055948;28;20356;-81
2022/06/18 00:26:14;;;;;;;2.15;1.33;;;;;;;-141.50;100.00;63355.56;5053982;28;20097;-83
2022/06/18 00:28:41;;;;;;;5.45;1.42;;;;;;;-141.50;100.00;63355.56;5054242;28;20663;-82
2022/06/18 00:31:07;;;;;;;3.70;1.52;;;;;;;-141.50;100.00;63355.56;5072341;28;20052;-82
2022/06/18 00:33:40;;;;;;;6.32;1.30;;;;;;;-141.50;100.00;63355.56;5054534;28;20529;-81
2022/06/18 00:36:14;;;;;;;5.30;1.40;;;;;;;-141.50;100.00;63355.56;5055111;28;20105;-83
2022/06/18 00:38:44;;;;;;;4.57;1.50;;;;;;;-141.50;100.00;63355.56;5072748;28;20502;-82
2022/06/18 00:41:20;;;;;;;4.28;1.42;;;;;;;-141.50;100.00;63355.56;5072614;28;20110;-82
2022/06/18 00:43:50;;;;;;;7.00;1.30;;;;;;;-141.50;100.00;63355.56;5072877;28;20049;-82
2022/06/18 00:46:19;;;;;;;3.72;1.45;;;;;;;-141.50;100.00;63355.56;5071942;28;20606;-84
2022/06/18 00:49:11;;;;;;;3.70;1.25;;;;;;;-141.50;100.00;63355.56;5055069;28;20079;-83
2022/06/18 00:51:37;;;;;;;5.15;1.48;;;;;;;-141.50;100.00;63355.56;5072672;28;20080;-82
2022/06/18 00:54:12;;;;;;;9.02;1.60;;;;;;;-141.50;100.00;63355.56;5074064;28;20135;-84
2022/06/18 00:56:53;;;;;;;3.67;1.47;;;;;;;-141.50;100.00;63355.56;5079012;28;20052;-82
2022/06/18 00:59:31;;;;;;;2.75;1.50;;;;;;;-141.50;100.00;63355.56;5071084;28;20838;-82
2022/06/18 01:01:59;;;;;;;2.30;1.30;;;;;;;-141.50;100.00;63355.56;5053502;28;20052;-80
2022/06/18 01:04:32;;;;;;;3.33;1.35;;;;;;;-141.50;100.00;63355.56;5053704;28;20045;-83
2022/06/18 01:07:05;;;;;;;4.45;1.50;;;;;;;-141.50;100.00;63355.56;5055224;28;20101;-81
2022/06/18 01:09:35;;;;;;;7.00;1.70;;;;;;;-141.50;100.00;63355.56;5079147;28;20051;-82
2022/06/18 01:12:01;;;;;;;3.05;1.38;;;;;;;-141.50;100.00;63355.56;5062698;28;20064;-82
2022/06/18 01:14:30;;;;;;;3.83;1.88;;;;;;;-141.50;100.00;63355.56;5060681;28;20066;-82
2022/06/18 01:17:01;;;;;;;2.78;1.65;;;;;;;-141.50;100.00;63355.56;5079916;28;20456;-82
2022/06/18 01:19:31;;;;;;;4.72;1.70;;;;;;;-141.50;100.00;63355.56;5077287;28;20045;-81
2022/06/18 01:22:18;;;;;;;4.50;1.65;;;;;;;-141.50;100.00;63355.56;5080206;28;20060;-80
2022/06/18 01:24:45;;;;;;;2.63;1.77;;;;;;;-141.50;100.00;63355.56;5059097;28;20063;-82
2022/06/18 01:27:12;;;;;;;3.55;1.92;;;;;;;-141.50;100.00;63355.56;5060539;28;20083;-81
2022/06/18 01:29:39;;;;;;;2.80;1.40;;;;;;;-141.50;100.00;63355.56;5085657;28;20288;-81
2022/06/18 01:32:10;;;;;;;3.17;1.60;;;;;;;-141.50;100.00;63355.56;5065579;28;20060;-80
2022/06/18 01:34:37;;;;;;;2.28;1.60;;;;;;;-141.50;100.00;63355.56;5055453;28;20052;-82
2022/06/18 01:37:04;;;;;;;6.00;1.90;;;;;;;-141.50;100.00;63355.56;5071724;28;20048;-81
2022/06/18 01:39:35;;;;;;;2.35;1.45;;;;;;;-141.50;100.00;63355.56;5070843;28;20052;-82
2022/06/18 01:42:14;;;;;;;4.93;1.90;;;;;;;-141.50;100.00;63355.56;5069798;28;20044;-83
2022/06/18 01:44:51;;;;;;;4.90;1.98;;;;;;;-141.50;100.00;63355.56;5072379;28;20064;-81
2022/06/18 01:47:24;;;;;;;3.38;1.73;;;;;;;-141.50;100.00;63355.56;5077372;28;20062;-82
2022/06/18 01:50:01;;;;;;;3.28;1.88;;;;;;;-141.50;100.00;63355.56;5071653;28;20052;-82
2022/06/18 01:52:37;;;;;;;2.33;1.77;;;;;;;-141.50;100.00;63355.56;5072866;28;20101;-81
2022/06/18 01:55:14;;;;;;;4.80;2.42;;;;;;;-141.50;100.00;63355.56;5072974;28;20056;-82
2022/06/18 01:57:47;;;;;;;3.45;1.83;;;;;;;-141.50;100.00;63355.56;5078575;28;20052;-79
2022/06/18 02:00:19;;;;;;;4.60;1.63;;;;;;;-141.50;100.00;63355.56;5083775;28;20059;-80
2022/06/18 02:02:46;;;;;;;2.90;2.10;;;;;;;-141.50;100.00;63355.56;5080116;28;20063;-84
2022/06/18 02:05:15;;;;;;;3.60;1.85;;;;;;;-141.50;100.00;63355.56;5072285;28;20055;-81
2022/06/18 02:07:44;;;;;;;6.97;1.92;;;;;;;-141.50;100.00;63355.56;5072360;28;20091;-83
2022/06/18 02:10:19;;;;;;;7.38;1.83;;;;;;;-141.50;100.00;63355.56;5071574;28;20056;-82
2022/06/18 02:12:46;;;;;;;4.28;1.90;;;;;;;-141.50;100.00;63355.56;5054694;28;20137;-83
2022/06/18 02:15:24;;;;;;;2.63;1.73;;;;;;;-141.50;100.00;63355.56;5070842;28;20052;-82
2022/06/18 02:17:51;;;;;;;4.18;1.92;;;;;;;-141.50;100.00;63355.56;5071305;28;20053;-82
2022/06/18 02:20:26;;;;;;;2.75;2.00;;;;;;;-141.50;100.00;63355.56;5082347;28;20067;-83
2022/06/18 02:22:56;;;;;;;3.72;2.03;;;;;;;-141.50;100.00;63355.56;5077004;28;20055;-84
2022/06/18 02:25:27;;;;;;;2.53;1.83;;;;;;;-141.50;100.00;63355.56;5073727;28;20048;-83
2022/06/18 02:28:09;;;;;;;7.05;2.03;;;;;;;-141.50;100.00;63355.56;5075134;28;20131;-82
2022/06/18 02:30:36;;;;;;;7.53;2.30;;;;;;;-141.50;100.00;63355.56;5073051;28;20098;-81
2022/06/18 02:33:19;;;;;;;2.20;1.65;;;;;;;-141.50;100.00;63355.56;5073850;28;20427;-82
2022/06/18 02:35:46;;;;;;;3.30;2.00;;;;;;;-141.50;100.00;63355.56;5073570;28;20636;-80
2022/06/18 02:38:17;;;;;;;4.72;1.90;;;;;;;-141.50;100.00;63355.56;5056244;28;20670;-81
2022/06/18 02:40:44;;;;;;;4.07;2.03;;;;;;;-141.50;100.00;63355.56;5074159;28;20087;-81
2022/06/18 02:43:12;;;;;;;3.75;2.40;;;;;;;-141.50;100.00;63355.56;5056692;28;20048;-81
2022/06/18 02:45:42;;;;;;;3.60;2.15;;;;;;;-141.50;100.00;63355.56;5074845;28;20056;-80
2022/06/18 02:48:09;;;;;;;5.70;2.30;;;;;;;-141.50;100.00;63355.56;5074939;28;20068;-84
2022/06/18 02:50:39;;;;;;;3.38;2.22;;;;;;;-141.50;100.00;63355.56;5057316;28;20048;-82
2022/06/18 02:53:08;;;;;;;8.90;2.22;;;;;;;-141.50;100.00;63355.56;5054840;28;20510;-81
2022/06/18 02:55:42;;;;;;;4.63;2.20;;;;;;;-141.50;100.00;63355.56;5072827;28;20057;-82
2022/06/18 02:58:14;;;;;;;4.65;2.10;;;;;;;-141.50;100.00;63355.56;5073269;28;20072;-82
2022/06/18 03:00:44;;;;;;;3.80;2.15;;;;;;;-141.50;100.00;63355.56;5055554;28;20121;-82
2022/06/18 03:03:13;;;;;;;4.30;2.33;;;;;;;-141.50;100.00;63355.56;5055335;28;20514;-81
2022/06/18 03:05:40;;;;;;;4.22;2.10;;;;;;;-141.50;100.00;63355.56;5078765;28;20131;-83
2022/06/18 03:08:07;;;;;;;4.22;2.15;;;;;;;-141.50;100.00;63355.56;5074325;28;20072;-82
2022/06/18 03:13:25;;;;;;;6.95;1.80;;;;;;;-141.50;100.00;63355.56;5075372;28;20079;-82
2022/06/18 03:15:55;;;;;;;7.22;2.00;;;;;;;-141.50;100.00;63355.56;5057715;28;20048;-81
2022/06/18 03:18:25;;;;;;;8.93;1.90;;;;;;;-141.50;100.00;63355.56;5057185;28;20408;-81
2022/06/18 03:21:02;;;;;;;6.70;2.20;;;;;;;-141.50;100.00;63355.56;5076663;28;20048;-82
2022/06/18 03:23:29;;;;;;;5.80;1.85;;;;;;;-141.50;100.00;63355.56;5074992;28;20056;-82
2022/06/18 03:25:56;;;;;;;4.32;2.00;;;;;;;-141.50;100.00;63355.56;5074097;28;20712;-82
2022/06/18 03:28:25;;;;;;;6.50;2.10;;;;;;;-141.50;100.00;63355.56;5059865;28;20430;-82
2022/06/18 03:30:52;;;;;;;5.18;1.75;;;;;;;-141.50;100.00;63355.56;5055807;28;20084;-82
2022/06/18 03:33:18;;;;;;;5.95;1.90;;;;;;;-141.50;100.00;63355.56;5073628;28;20462;-82
2022/06/18 03:35:48;;;;;;;6.20;1.70;;;;;;;-141.50;100.00;63355.56;5079325;28;20131;-79
2022/06/18 03:38:21;;;;;;;;;;;;;;;-141.50;100.00;63355.56;5076056;28;20052;-83
2022/06/18 03:40:51;;;;;;;7.07;2.00;;;;;;;-141.50;100.00;63355.56;5087468;28;19921;-83
2022/06/18 03:43:22;;;;;;;9.30;2.13;;;;;;;-141.50;100.00;63355.56;5057333;28;20057;-83
2022/06/18 03:45:54;;;;;;;9.48;2.03;;;;;;;-141.50;100.00;63355.56;5059888;28;20115;-84
2022/06/18 03:48:40;;;;;;;4.55;2.25;;;;;;;-141.50;100.00;63355.56;5093239;28;20040;-80
2022/06/18 03:51:06;;;;;;;5.30;1.70;;;;;;;-141.50;100.00;63355.56;5072161;28;20051;-81
2022/06/18 03:53:33;;;;;;;5.25;1.90;;;;;;;-141.50;100.00;63355.56;5096569;28;20074;-82
2022/06/18 03:56:00;;;;;;;7.20;1.73;;;;;;;-141.50;100.00;63355.56;5066447;28;20049;-82
2022/06/18 03:58:28;;;;;;;8.05;1.80;;;;;;;-141.50;100.00;63355.56;5057447;28;20048;-81
2022/06/18 04:00:55;;;;;;;7.45;1.63;;;;;;;-141.50;100.00;63355.56;5060067;28;20067;-82
2022/06/18 04:03:22;;;;;;;9.40;1.75;;;;;;;-141.50;100.00;63355.56;5059713;28;21092;-82
2022/06/18 04:05:49;;;;;;;5.30;1.80;;;;;;;-141.50;100.00;63355.56;5052632;28;20466;-81
2022/06/18 04:08:20;;;;;;;6.03;1.80;;;;;;;-141.50;100.00;63355.56;5090347;28;20581;-82
2022/06/18 04:10:47;;;;;;;4.45;1.55;;;;;;;-141.50;100.00;63355.56;5094225;28;20113;-82
2022/06/18 04:13:15;;;;;;;3.08;1.65;;;;;;;-141.50;100.00;63355.56;5095734;28;20093;-82
2022/06/18 04:15:42;;;;;;;3.50;1.67;;;;;;;-141.50;100.00;63355.56;5096905;28;20567;-84
2022/06/18 04:18:15;;;;;;;7.45;1.63;;;;;;;-141.50;100.00;63355.56;5069052;28;20040;-83
2022/06/18 04:20:44;;;;;;;4.88;1.73;;;;;;;-141.50;100.00;63355.56;5058129;28;20449;-83
2022/06/18 04:23:11;;;;;;;9.50;1.50;;;;;;;-141.50;100.00;63355.56;5076135;28;20098;-84
2022/06/18 04:25:39;;;;;;;8.65;1.55;;;;;;;-141.50;100.00;63355.56;5075531;28;20076;-83
2022/06/18 04:28:05;;;;;;;4.82;1.60;;;;;;;-141.50;100.00;63355.56;5074047;28;20100;-82
2022/06/18 04:30:33;;;;;;;5.43;1.42;;;;;;;-141.50;100.00;63355.56;5073744;28;20111;-83
2022/06/18 04:33:01;;;;;;;5.70;1.65;;;;;;;-141.50;100.00;63355.56;5073458;28;20521;-81
2022/06/18 04:35:27;;;;;;;2.40;1.10;;;;;;;-141.50;100.00;63355.56;5073871;28;20061;-82
2022/06/18 04:37:54;;;;;;;2.17;1.00;;;;;;;-141.50;100.00;63355.56;5086529;28;20112;-85
2022/06/18 04:40:31;;;;;;;1.63;0.80;;;;;;;-141.50;100.00;63355.56;5093474;28;20059;-83
2022/06/18 04:43:19;;;;;;;3.92;1.15;;;;;;;-141.50;100.00;63355.56;5086752;28;20075;-82
2022/06/18 04:45:46;;;;;;;4.15;1.02;;;;;;;-141.50;100.00;63355.56;5072041;28;20520;-83
2022/06/18 04:48:13;;;;;;;1.30;0.88;;;;;;;-141.50;100.00;63355.56;5070401;28;20083;-85
2022/06/18 04:50:41;;;;;;;2.05;0.90;;;;;;;-141.50;100.00;63355.56;5070082;28;20561;-81
2022/06/18 04:53:09;;;;;;;2.45;0.80;;;;;;;-141.50;100.00;63355.56;5053239;28;20052;-81
2022/06/18 04:55:36;;;;;;;1.40;0.75;;;;;;;-141.50;100.00;63355.56;5055810;28;20127;-82
2022/06/18 04:58:02;;;;;;;3.17;1.10;;;;;;;-141.50;100.00;63355.56;5054598;28;20108;-81
2022/06/18 05:00:29;;;;;;;2.08;0.80;;;;;;;-141.50;100.00;63355.56;5072875;28;20097;-81
2022/06/18 05:02:58;;;;;;;2.55;0.90;;;;;;;-141.50;100.00;63355.56;5059679;28;20048;-81
2022/06/18 05:05:26;;;;;;;2.38;0.70;;;;;;;-141.50;100.00;63355.56;5082365;28;20059;-80
2022/06/18 05:07:53;;;;;;;2.42;0.80;;;;;;;-141.50;100.00;63355.56;5087828;28;20040;-81
2022/06/18 05:10:20;;;;;;;2.10;0.77;;;;;;;-141.50;100.00;63355.56;5060811;28;20049;-81
2022/06/18 05:12:47;;;;;;;4.97;0.70;;;;;;;-141.50;100.00;63355.56;5088818;28;20051;-82
2022/06/18 05:15:14;;;;;;;1.80;0.55;;;;;;;-141.50;100.00;63355.56;5092007;28;20056;-81
2022/06/18 05:17:46;;;;;;;1.45;0.80;;;;;;;-141.50;100.00;63355.56;5093327;28;20059;-82
2022/06/18 05:20:17;;;;;;;3.78;0.60;;;;;;;-141.50;100.00;63355.56;5084176;28;20055;-83
2022/06/18 05:22:44;;;;;;;3.60;0.70;;;;;;;-141.50;100.00;63355.56;5062819;28;20063;-82
2022/06/18 05:25:15;;;;;;;4.35;0.68;;;;;;;-141.50;100.00;63355.56;5050524;28;20102;-82
2022/06/18 05:27:43;;;;;;;2.70;0.77;;;;;;;-141.50;100.00;63355.56;5082635;28;20055;-81
2022/06/18 05:30:13;;;;;;;1.95;0.50;;;;;;;-141.50;100.00;63355.56;5053084;28;20090;-80
2022/06/18 05:32:42;;;;;;;2.28;0.60;;;;;;;-141.50;100.00;63355.56;5074868;28;20062;-79
2022/06/18 05:35:14;;;;;;;5.55;0.60;;;;;;;-141.50;100.00;63355.56;5083831;28;20052;-82
2022/06/18 05:37:42;;;;;;;4.32;0.60;;;;;;;-141.50;100.00;63355.56;5077789;28;20555;-83
2022/06/18 05:40:10;;;;;;;3.40;0.80;;;;;;;-141.50;100.00;63355.56;5057815;28;20190;-79
2022/06/18 05:42:37;;;;;;;1.55;0.70;;;;;;;-141.50;100.00;63355.56;5078505;28;20044;-82
2022/06/18 05:45:04;;;;;;;4.60;0.55;;;;;;;-141.50;100.00;63355.56;5056994;28;20418;-80
2022/06/18 05:47:32;;;;;;;1.98;0.70;;;;;;;-141.50;100.00;63355.56;5076967;28;20106;-82
2022/06/18 05:50:01;;;;;;;1.33;0.70;;;;;;;-141.50;100.00;63355.56;5056773;28;20060;-80
2022/06/18 05:52:29;;;;;;;1.75;0.90;;;;;;;-141.50;100.00;63355.56;5074129;28;20048;-84
2022/06/18 05:54:57;;;;;;;2.10;0.90;;;;;;;-141.50;100.00;63355.56;5075751;28;20049;-85
2022/06/18 05:57:25;;;;;;;3.63;0.73;;;;;;;-141.50;100.00;63355.56;5078510;28;20422;-84
2022/06/18 05:59:52;;;;;;;1.27;0.50;;;;;;;-141.50;100.00;63355.56;5078336;28;20616;-81
2022/06/18 06:02:22;;;;;;;3.60;1.00;;;;;;;-141.50;100.00;63355.56;5061967;28;20110;-84
2022/06/18 06:04:49;;;;;;;2.15;0.80;;;;;;;-141.50;100.00;63355.56;5061125;28;20106;-83
2022/06/18 06:07:20;;;;;;;3.88;0.75;;;;;;;-141.50;100.00;63355.56;5063396;28;20104;-80
2022/06/18 06:12:34;;;;;;;0.98;0.60;;;;;;;-141.50;100.00;63355.56;5077961;28;20526;-83
2022/06/18 06:15:01;;;;;;;3.63;0.90;;;;;;;-141.50;100.00;63355.56;5060630;28;20049;-81
2022/06/18 06:17:28;;;;;;;2.97;0.63;;;;;;;-141.50;100.00;63355.56;5077459;28;20048;-85
2022/06/18 06:20:05;;;;;;;1.52;0.60;;;;;;;-141.50;100.00;63355.56;5078085;28;20494;-82
2022/06/18 06:22:33;;;;;;;1.70;0.70;;;;;;;-141.50;100.00;63355.56;5061468;28;20056;-82
2022/06/18 06:25:01;;;;;;;1.70;0.80;;;;;;;-141.50;100.00;63355.56;5089090;28;20048;-79
2022/06/18 06:27:30;;;;;;;2.85;0.65;;;;;;;-141.50;100.00;63355.56;5094715;28;20048;-81
2022/06/18 06:29:56;;;;;;;1.67;0.70;;;;;;;-141.50;100.00;63355.56;5074552;28;20072;-83
2022/06/18 06:32:23;;;;;;;5.57;0.63;;;;;;;-141.50;100.00;63355.56;5081494;28;20089;-80
2022/06/18 06:34:50;;;;;;;2.97;0.80;;;;;;;-141.50;100.00;63355.56;5079601;28;20076;-83
2022/06/18 06:37:17;;;;;;;1.35;0.80;;;;;;;-141.50;100.00;63355.56;5078943;28;20052;-81
2022/06/18 06:39:44;;;;;;;2.67;0.77;;;;;;;-141.50;100.00;63355.56;5056559;28;20052;-82
2022/06/18 06:42:15;;;;;;;4.20;0.70;;;;;;;-141.50;100.00;63355.56;5076718;28;20167;-81
2022/06/18 06:44:42;;;;;;;1.65;0.60;;;;;;;-141.50;100.00;63355.56;5085588;28;20052;-81
2022/06/18 06:47:13;;;;;;;4.05;0.90;;;;;;;-141.50;100.00;63355.56;5058219;28;20066;-81
2022/06/18 06:49:45;;;;;;;2.25;0.80;;;;;;;-141.50;100.00;63355.56;5085800;28;20057;-81
2022/06/18 06:52:13;;;;;;;5.53;0.90;;;;;;;-141.50;100.00;63355.56;5081583;28;20052;-80
2022/06/18 06:54:42;;;;;;;7.53;0.70;;;;;;;-141.50;100.00;63355.56;5053906;28;20064;-81
2022/06/18 06:57:21;;;;;;;6.57;0.60;;;;;;;-141.50;100.00;63355.56;5083127;28;20162;-78
2022/06/18 06:59:47;;;;;;;4.18;0.70;;;;;;;-141.50;100.00;63355.56;5054780;28;20091;-79
2022/06/18 07:02:18;;;;;;;1.60;0.90;;;;;;;-141.50;100.00;63355.56;5052511;28;20052;-78
2022/06/18 07:04:45;;;;;;;3.83;0.95;;;;;;;-141.50;100.00;63355.56;5078969;28;20100;-79
2022/06/18 07:07:13;;;;;;;4.57;0.90;;;;;;;-141.50;100.00;63355.56;5075095;28;20045;-77
2022/06/18 07:09:41;;;;;;;1.88;0.90;;;;;;;-141.50;100.00;63355.56;5076552;28;20079;-78
2022/06/18 07:12:08;;;;;;;3.03;1.00;;;;;;;-141.50;100.00;63355.56;5081508;28;20824;-79
2022/06/18 07:14:36;;;;;;;1.27;0.90;;;;;;;-141.50;100.00;63355.56;5086396;28;20048;-78
2022/06/18 07:17:03;;;;;;;3.42;1.20;;;;;;;-141.50;100.00;63355.56;5058188;28;20048;-78
2022/06/18 07:19:30;;;;;;;2.83;0.80;;;;;;;-141.50;100.00;63355.56;5071142;28;20044;-79
2022/06/18 07:21:56;;;;;;;3.10;0.90;;;;;;;-141.50;100.00;63355.56;5081104;28;20749;-78
2022/06/18 07:24:23;;;;;;;0.98;0.70;;;;;;;-141.50;100.00;63355.56;5073697;28;20056;-78
2022/06/18 07:26:49;;;;;;;5.68;0.80;;;;;;;-141.50;100.00;63355.56;5076494;28;20079;-85
2022/06/18 07:29:20;;;;;;;4.15;1.08;;;;;;;-141.50;100.00;63355.56;5058674;28;20040;-80
2022/06/18 07:31:48;;;;;;;4.13;0.95;;;;;;;-141.50;100.00;63355.56;5063036;28;20140;-78
2022/06/18 07:34:15;;;;;;;3.60;1.00;;;;;;;-141.50;100.00;63355.56;5076983;28;20080;-79
2022/06/18 07:36:41;;;;;;;3.40;0.88;;;;;;;-141.50;100.00;63355.56;5100641;28;20127;-80
2022/06/18 07:39:08;;;;;;;4.32;0.95;;;;;;;-141.50;100.00;63355.56;5051424;28;20076;-78
2022/06/18 07:41:39;;;;;;;2.17;0.73;;;;;;;-141.50;100.00;63355.56;5052617;28;20245;-82
2022/06/18 07:44:08;;;;;;;2.33;0.88;;;;;;;-141.50;100.00;63355.56;5061977;28;20122;-79
2022/06/18 07:46:35;;;;;;;5.32;0.80;;;;;;;-141.50;100.00;63355.56;5069025;28;20643;-79
2022/06/18 07:49:02;;;;;;;3.08;0.90;;;;;;;-141.50;100.00;63355.56;5059857;28;20055;-78
2022/06/18 07:51:29;;;;;;;3.90;1.08;;;;;;;-141.50;100.00;63355.56;5066092;28;20112;-82
2022/06/18 07:53:56;;;;;;;1.65;0.90;;;;;;;-141.50;100.00;63355.56;5081883;28;20839;-81
2022/06/18 07:56:23;;;;;;;3.10;0.90;;;;;;;-141.50;100.00;63355.56;5057216;28;20052;-79
2022/06/18 07:58:50;;;;;;;6.32;1.20;;;;;;;-141.50;100.00;63355.56;5067522;28;20465;-82
2022/06/18 08:01:16;;;;;;;1.88;0.70;;;;;;;-141.50;100.00;63355.56;5067554;28;20056;-78
2022/06/18 08:03:43;;;;;;;1.38;0.77;;;;;;;-141.50;100.00;63355.56;5094860;28;20095;-81
2022/06/18 08:06:13;;;;;;;2.45;0.80;;;;;;;-141.50;100.00;63355.56;5063916;28;20155;-79
2022/06/18 08:08:40;;;;;;;1.98;0.98;;;;;;;-141.50;100.00;63355.56;5075796;28;20102;-78
2022/06/18 08:11:14;;;;;;;2.17;0.90;;;;;;;-141.50;100.00;63355.56;5072861;28;20048;-79
2022/06/18 08:13:42;;;;;;;1.90;0.85;;;;;;;-141.50;100.00;63355.56;5075620;28;20052;-78
2022/06/18 08:16:11;;;;;;;3.83;1.08;;;;;;;-141.50;100.00;63355.56;5055749;28;20117;-82
2022/06/18 08:18:37;;;;;;;2.90;0.90;;;;;;;-141.50;100.00;63355.56;5063134;28;20593;-84
2022/06/18 08:21:23;;;;;;;9.63;1.08;;;;;;;-141.50;100.00;63355.56;5082660;28;20087;-81
2022/06/18 08:23:56;;;;;;;3.97;1.10;;;;;;;-141.50;100.00;63355.56;5053724;28;20064;-81
2022/06/18 08:26:28;;;;;;;3.55;0.90;;;;;;;-141.50;100.00;63355.56;5070795;28;20040;-81
2022/06/18 08:28:55;;;;;;;6.72;1.00;;;;;;;-141.50;100.00;63355.56;5066532;28;20117;-79
2022/06/18 08:31:26;;;;;;;2.38;0.90;;;;;;;-141.50;100.00;63355.56;5068652;28;20094;-80
2022/06/18 08:33:54;;;;;;;2.17;0.90;;;;;;;-141.50;100.00;63355.56;5066974;28;20107;-80
2022/06/18 08:36:21;;;;;;;5.30;0.93;;;;;;;-141.50;100.00;63355.56;5067386;28;20044;-82
2022/06/18 08:38:49;;;;;;;1.80;0.88;;;;;;;-141.50;100.00;63355.56;5071799;28;20084;-83
2022/06/18 08:41:28;;;;;;;2.75;0.93;;;;;;;-141.50;100.00;63355.56;5063948;28;20086;-78
2022/06/18 08:44:17;;;;;;;2.40;0.90;;;;;;;-141.50;100.00;63355.56;5077966;28;20522;-80
2022/06/18 08:47:04;;;;;;;3.67;1.10;;;;;;;-141.50;100.00;63355.56;5069617;28;20181;-81
2022/06/18 08:49:50;;;;;;;3.10;1.20;;;;;;;-141.50;100.00;63355.56;5030138;28;20756;-79
2022/06/18 08:52:41;;;;;;;3.42;1.10;;;;;;;-141.50;100.00;63355.56;5067534;28;20059;-79
2022/06/18 08:55:36;;;;;;;5.38;1.30;;;;;;;-141.50;100.00;63355.56;5032264;28;20052;-78
2022/06/18 08:58:24;;;;;;;3.83;0.98;;;;;;;-141.50;100.00;63355.56;5048976;28;20052;-79
2022/06/18 09:00:53;;;;;;;3.80;1.10;;;;;;;-141.50;100.00;63355.56;5062089;28;20080;-79
2022/06/18 09:03:51;;;;;;;2.90;1.00;;;;;;;-141.50;100.00;63355.56;5050960;28;20168;-82
2022/06/18 09:06:37;;;;;;;7.55;1.20;;;;;;;-141.50;100.00;63355.56;5069710;28;20055;-80
2022/06/18 09:09:27;;;;;;;2.55;1.15;;;;;;;-141.50;100.00;63355.56;5070482;28;20112;-79
2022/06/18 09:12:14;;;;;;;4.57;1.13;;;;;;;-141.50;100.00;63355.56;5069594;28;20048;-78
2022/06/18 09:14:46;;;;;;;5.45;1.30;;;;;;;-141.50;100.00;63355.56;5073533;28;20048;-82
2022/06/18 09:17:29;;;;;;;3.28;1.10;;;;;;;-141.50;100.00;63355.56;5054293;28;20071;-79
2022/06/18 09:20:04;;;;;;;1.95;1.00;;;;;;;-141.50;100.00;63355.56;5054723;28;20045;-82
2022/06/18 09:22:35;;;;;;;3.00;1.02;;;;;;;-141.50;100.00;63355.56;5072418;28;20072;-82
2022/06/18 09:25:10;;;;;;;1.95;1.10;;;;;;;-141.50;100.00;63355.56;5076485;28;20612;-79
2022/06/18 09:28:06;;;;;;;3.33;1.00;;;;;;;-141.50;100.00;63355.56;5071843;28;20095;-78
2022/06/18 09:30:47;;;;;;;5.15;1.05;;;;;;;-141.50;100.00;63355.56;5052546;28;20515;-80
2022/06/18 09:33:35;;;;;;;5.32;1.23;;;;;;;-141.50;100.00;63355.56;5047517;28;20154;-79
2022/06/18 09:36:11;;;;;;;2.95;1.30;;;;;;;-141.50;100.00;63355.56;5084504;28;20032;-82
2022/06/18 09:39:02;;;;;;;9.60;1.45;;;;;;;-141.50;100.00;63355.56;5093629;28;20076;-79
2022/06/18 09:41:38;;;;;;;3.08;1.40;;;;;;;-141.50;100.00;63355.56;5083866;28;20052;-81
2022/06/18 09:44:18;;;;;;;4.88;1.20;;;;;;;-141.50;100.00;63355.56;5084567;28;20080;-78
2022/06/18 09:46:58;;;;;;;2.95;1.27;;;;;;;-141.50;100.00;63355.56;5091841;28;20059;-79
2022/06/18 09:49:25;;;;;;;5.13;1.40;;;;;;;-141.50;100.00;63355.56;5080468;28;20072;-84
2022/06/18 09:52:05;;;;;;;8.23;1.65;;;;;;;-141.50;100.00;63355.56;5074777;28;20109;-80
2022/06/18 09:54:44;;;;;;;4.60;1.27;;;;;;;-141.50;100.00;63355.56;5059244;28;20156;-81
2022/06/18 09:57:15;;;;;;;3.22;1.20;;;;;;;-141.50;100.00;63355.56;5061314;28;20049;-80
2022/06/18 09:59:48;;;;;;;3.72;1.25;;;;;;;-141.50;100.00;63355.56;5064130;28;20072;-80
2022/06/18 10:02:22;;;;;;;10.43;1.48;;;;;;;-141.50;100.00;63355.56;5060523;28;20067;-81
2022/06/18 10:07:42;;;;;;;6.72;1.40;;;;;;;-141.50;100.00;63355.56;5079784;28;20058;-81
2022/06/18 10:10:15;;;;;;;8.45;1.20;;;;;;;-141.50;100.00;63355.56;5077576;28;20095;-81
2022/06/18 10:12:55;;;;;;;4.78;1.30;;;;;;;-141.50;100.00;63355.56;5079055;28;20088;-80
2022/06/18 10:15:24;;;;;;;7.75;1.70;;;;;;;-141.50;100.00;63355.56;5075878;28;20048;-80
2022/06/18 10:17:56;;;;;;;5.00;1.38;;;;;;;-141.50;100.00;63355.56;5072012;28;20052;-82
2022/06/18 10:20:35;;;;;;;7.97;1.42;;;;;;;-141.50;100.00;63355.56;5075832;28;20056;-80
2022/06/18 10:23:04;;;;;;;5.90;1.40;;;;;;;-141.50;100.00;63355.56;5053046;28;20045;-81
2022/06/18 10:25:42;;;;;;;3.97;1.33;;;;;;;-141.50;100.00;63355.56;5057959;28;20291;-81
2022/06/18 10:28:09;;;;;;;3.28;1.60;;;;;;;-141.50;100.00;63355.56;5060316;28;20059;-82
2022/06/18 10:31:00;;;;;;;6.85;1.58;;;;;;;-141.50;100.00;63355.56;5076151;28;20079;-83
2022/06/18 10:33:43;;;;;;;3.88;1.50;;;;;;;-141.50;100.00;63355.56;5075748;28;20060;-80
2022/06/18 10:36:30;;;;;;;5.43;1.52;;;;;;;-141.50;100.00;63355.56;5075588;28;20059;-78
2022/06/18 10:38:57;;;;;;;2.88;1.50;;;;;;;-141.50;100.00;63355.56;5079376;28;20132;-81
2022/06/18 10:41:52;;;;;;;4.70;1.50;;;;;;;-141.50;100.00;63355.56;5089473;28;20028;-80
2022/06/18 10:44:29;;;;;;;9.32;2.22;;;;;;;-141.50;100.00;63355.56;5067198;28;20044;-81
2022/06/18 10:47:06;;;;;;;8.15;1.98;;;;;;;-141.50;100.00;63355.56;5075104;28;20053;-80
2022/06/18 10:49:34;;;;;;;11.00;1.90;;;;;;;-141.50;100.00;63355.56;5049309;28;20047;-81
2022/06/18 10:52:00;;;;;;;11.52;2.10;;;;;;;-141.50;100.00;63355.56;5073883;28;20049;-82
2022/06/18 10:54:34;;;;;;;13.50;2.10;;;;;;;-141.50;100.00;63355.56;5076673;28;20103;-81
2022/06/18 10:57:01;;;;;;;9.75;2.10;;;;;;;-141.50;100.00;63355.56;5075157;28;20048;-85
2022/06/18 10:59:28;;;;;;;11.57;2.03;;;;;;;-141.50;100.00;63355.56;5075612;28;20472;-82
2022/06/18 11:01:55;;;;;;;8.60;1.95;;;;;;;-141.50;100.00;63355.56;5070784;28;20055;-81
2022/06/18 11:04:30;;;;;;;11.20;2.10;;;;;;;-141.50;100.00;63355.56;5067731;28;20045;-79
2022/06/18 11:07:03;;;;;;;;;;;;;;;-141.50;100.00;63355.56;5078595;28;20092;-79
2022/06/18 11:09:36;;;;;;;8.82;2.15;;;;;;;-141.50;100.00;63355.56;5083909;28;19963;-79
2022/06/18 11:12:19;;;;;;;6.25;1.73;;;;;;;-141.50;100.00;63355.56;5069372;28;20154;-79
2022/06/18 11:14:46;;;;;;;10.18;1.98;;;;;;;-141.50;100.00;63355.56;5089556;28;20049;-79
2022/06/18 11:17:28;;;;;;;11.68;2.30;;;;;;;-141.50;100.00;63355.56;5090511;28;20068;-81
2022/06/18 11:20:23;;;;;;;7.40;2.08;;;;;;;-141.50;100.00;63355.56;5087305;28;20080;-82
2022/06/18 11:22:56;;;;;;;10.07;2.35;;;;;;;-141.50;100.00;63355.56;5070930;28;20085;-81
2022/06/18 11:25:32;;;;;;;11.77;2.30;;;;;;;-141.50;100.00;63355.56;5061091;28;20113;-84
2022/06/18 11:28:03;;;;;;;6.95;2.28;;;;;;;-141.50;100.00;63355.56;5057446;28;20057;-80
2022/06/18 11:30:44;;;;;;;13.00;2.20;;;;;;;-141.50;100.00;63355.56;5081601;28;20110;-81
2022/06/18 11:33:40;;;;;;;11.93;2.30;;;;;;;-141.50;100.00;63355.56;5078312;28;20053;-83
2022/06/18 11:36:11;;;;;;;16.42;2.33;;;;;;;-141.50;100.00;63355.56;5068803;28;20143;-79
2022/06/18 11:38:40;;;;;;;6.15;2.50;;;;;;;-141.50;100.00;63355.56;5053483;28;20076;-79